OECDV EDLP-EDDW
Flight info
| Callsign | OECDV |
|---|---|
| Flight time | 1h 5m |
| Altitude | 8000 |
| Route | WRB1W WRB N850 NIE Z88 VERED VERED3P |
| Aircraft | DA42/L-SBDGRY/S |
Departure
| Time | 2026-05-06 17:54 |
|---|---|
| Airport | Paderborn Lippstadt Airport (EDLP) |
Arrival
| Time | 2026-05-06 18:59 |
|---|---|
| Airport | Bremen Airport (EDDW) |
| Time | Latitude | Longitude | Altitude | Speed | Heading |
|---|---|---|---|---|---|
| 2026-05-06 17:42 | 51.60968 | 8.61574 | 693 ft | 0 kts | 133° |
| 2026-05-06 17:50 | 51.60991 | 8.61595 | 689 ft | 11 kts | 25° |
| 2026-05-06 17:50 | 51.61063 | 8.61567 | 692 ft | 12 kts | 327° |
| 2026-05-06 17:50 | 51.61136 | 8.61488 | 690 ft | 12 kts | 347° |
| 2026-05-06 17:50 | 51.61189 | 8.61575 | 688 ft | 13 kts | 54° |
| 2026-05-06 17:51 | 51.61249 | 8.61712 | 690 ft | 17 kts | 53° |
| 2026-05-06 17:51 | 51.61316 | 8.61879 | 689 ft | 19 kts | 57° |
| 2026-05-06 17:51 | 51.61392 | 8.62022 | 684 ft | 13 kts | 1° |
| 2026-05-06 17:51 | 51.61434 | 8.61977 | 687 ft | 0 kts | 290° |
| 2026-05-06 17:52 | 51.61437 | 8.61960 | 686 ft | 8 kts | 282° |
| 2026-05-06 17:53 | 51.61446 | 8.61786 | 690 ft | 19 kts | 288° |
| 2026-05-06 17:53 | 51.61408 | 8.61628 | 692 ft | 32 kts | 237° |
| 2026-05-06 17:53 | 51.61183 | 8.61067 | 701 ft | 80 kts | 241° |
| 2026-05-06 17:53 | 51.60894 | 8.60375 | 988 ft | 73 kts | 240° |
| 2026-05-06 17:54 | 51.60597 | 8.59677 | 1239 ft | 79 kts | 234° |
| 2026-05-06 17:54 | 51.60242 | 8.58987 | 1524 ft | 83 kts | 231° |
| 2026-05-06 17:54 | 51.59819 | 8.58284 | 1828 ft | 91 kts | 226° |
| 2026-05-06 17:54 | 51.59390 | 8.57547 | 2128 ft | 92 kts | 239° |
| 2026-05-06 17:55 | 51.59006 | 8.56718 | 2452 ft | 93 kts | 238° |
| 2026-05-06 17:55 | 51.58611 | 8.55894 | 2809 ft | 93 kts | 238° |
| 2026-05-06 17:55 | 51.58276 | 8.55014 | 3137 ft | 92 kts | 245° |
| 2026-05-06 17:55 | 51.57961 | 8.54137 | 3477 ft | 90 kts | 245° |
| 2026-05-06 17:56 | 51.57646 | 8.53281 | 3805 ft | 88 kts | 245° |
| 2026-05-06 17:56 | 51.57312 | 8.52369 | 3998 ft | 110 kts | 246° |
| 2026-05-06 17:56 | 51.56908 | 8.51158 | 4000 ft | 135 kts | 246° |
| 2026-05-06 17:56 | 51.56463 | 8.49739 | 4006 ft | 148 kts | 246° |
| 2026-05-06 17:57 | 51.55975 | 8.48253 | 4005 ft | 155 kts | 236° |
| 2026-05-06 17:57 | 51.55066 | 8.47347 | 3991 ft | 162 kts | 192° |
| 2026-05-06 17:57 | 51.53978 | 8.47644 | 3987 ft | 161 kts | 149° |
| 2026-05-06 17:57 | 51.53170 | 8.48859 | 4001 ft | 159 kts | 131° |
| 2026-05-06 17:58 | 51.52427 | 8.50180 | 3992 ft | 159 kts | 131° |
| 2026-05-06 17:58 | 51.51691 | 8.51488 | 3995 ft | 158 kts | 131° |
| 2026-05-06 17:58 | 51.50948 | 8.52776 | 3995 ft | 157 kts | 132° |
| 2026-05-06 17:58 | 51.50301 | 8.54161 | 3996 ft | 155 kts | 108° |
| 2026-05-06 17:59 | 51.50164 | 8.55863 | 3996 ft | 154 kts | 89° |
| 2026-05-06 17:59 | 51.50156 | 8.57587 | 3998 ft | 154 kts | 88° |
| 2026-05-06 17:59 | 51.50157 | 8.59298 | 3996 ft | 152 kts | 87° |
| 2026-05-06 17:59 | 51.50163 | 8.60976 | 3998 ft | 153 kts | 86° |
| 2026-05-06 18:00 | 51.50174 | 8.62689 | 3996 ft | 154 kts | 86° |
| 2026-05-06 18:00 | 51.50188 | 8.64404 | 3991 ft | 154 kts | 86° |
| 2026-05-06 18:00 | 51.50202 | 8.66116 | 3992 ft | 154 kts | 87° |
| 2026-05-06 18:00 | 51.50216 | 8.67835 | 3991 ft | 153 kts | 87° |
| 2026-05-06 18:01 | 51.50230 | 8.69546 | 3991 ft | 153 kts | 86° |
| 2026-05-06 18:01 | 51.50246 | 8.71252 | 3996 ft | 152 kts | 86° |
| 2026-05-06 18:01 | 51.50282 | 8.72952 | 3997 ft | 152 kts | 84° |
| 2026-05-06 18:01 | 51.50339 | 8.74647 | 4000 ft | 152 kts | 84° |
| 2026-05-06 18:02 | 51.50389 | 8.76125 | 4502 ft | 126 kts | 84° |
| 2026-05-06 18:02 | 51.50426 | 8.77485 | 4813 ft | 121 kts | 84° |
| 2026-05-06 18:02 | 51.50512 | 8.78940 | 4781 ft | 144 kts | 82° |
| 2026-05-06 18:02 | 51.50633 | 8.80637 | 4658 ft | 160 kts | 82° |
| 2026-05-06 18:03 | 51.50768 | 8.82466 | 4527 ft | 168 kts | 81° |
| 2026-05-06 18:03 | 51.50907 | 8.84351 | 4405 ft | 172 kts | 82° |
| 2026-05-06 18:03 | 51.51048 | 8.86268 | 4275 ft | 173 kts | 82° |
| 2026-05-06 18:03 | 51.51187 | 8.88193 | 4145 ft | 174 kts | 82° |
| 2026-05-06 18:04 | 51.51241 | 8.90103 | 4017 ft | 174 kts | 90° |
| 2026-05-06 18:04 | 51.51176 | 8.92017 | 4002 ft | 169 kts | 91° |
| 2026-05-06 18:04 | 51.51106 | 8.93881 | 3998 ft | 166 kts | 92° |
| 2026-05-06 18:04 | 51.51037 | 8.95711 | 4003 ft | 162 kts | 91° |
| 2026-05-06 18:05 | 51.50964 | 8.97493 | 3999 ft | 158 kts | 92° |
| 2026-05-06 18:05 | 51.50892 | 8.99236 | 3995 ft | 156 kts | 91° |
| 2026-05-06 18:05 | 51.50819 | 9.00967 | 3988 ft | 155 kts | 92° |
| 2026-05-06 18:05 | 51.50744 | 9.02685 | 3982 ft | 154 kts | 92° |
| 2026-05-06 18:06 | 51.50669 | 9.04377 | 3981 ft | 154 kts | 93° |
| 2026-05-06 18:06 | 51.50606 | 9.06099 | 3978 ft | 155 kts | 90° |
| 2026-05-06 18:06 | 51.50583 | 9.07816 | 3974 ft | 154 kts | 89° |
| 2026-05-06 18:06 | 51.50782 | 9.09475 | 3975 ft | 152 kts | 63° |
| 2026-05-06 18:07 | 51.51421 | 9.10786 | 3969 ft | 149 kts | 36° |
| 2026-05-06 18:07 | 51.52346 | 9.11481 | 3968 ft | 147 kts | 11° |
| 2026-05-06 18:07 | 51.53355 | 9.11723 | 3975 ft | 147 kts | 7° |
| 2026-05-06 18:07 | 51.54365 | 9.11959 | 3970 ft | 147 kts | 7° |
| 2026-05-06 18:08 | 51.55372 | 9.12189 | 3969 ft | 146 kts | 7° |
| 2026-05-06 18:08 | 51.56365 | 9.12413 | 3971 ft | 146 kts | 7° |
| 2026-05-06 18:08 | 51.57371 | 9.12641 | 3972 ft | 146 kts | 7° |
| 2026-05-06 18:08 | 51.58375 | 9.12870 | 3972 ft | 146 kts | 7° |
| 2026-05-06 18:09 | 51.59380 | 9.13099 | 3974 ft | 146 kts | 7° |
| 2026-05-06 18:09 | 51.60386 | 9.13328 | 3975 ft | 146 kts | 7° |
| 2026-05-06 18:09 | 51.61394 | 9.13558 | 3973 ft | 146 kts | 8° |
| 2026-05-06 18:09 | 51.62366 | 9.13769 | 4186 ft | 134 kts | 6° |
| 2026-05-06 18:10 | 51.63206 | 9.13937 | 4619 ft | 117 kts | 5° |
| 2026-05-06 18:10 | 51.63995 | 9.14117 | 4953 ft | 112 kts | 7° |
| 2026-05-06 18:10 | 51.64757 | 9.14306 | 5247 ft | 114 kts | 8° |
| 2026-05-06 18:10 | 51.65543 | 9.14555 | 5502 ft | 116 kts | 7° |
| 2026-05-06 18:11 | 51.66343 | 9.14789 | 5771 ft | 118 kts | 8° |
| 2026-05-06 18:11 | 51.67152 | 9.14994 | 6077 ft | 117 kts | 2° |
| 2026-05-06 18:11 | 51.67957 | 9.15115 | 6385 ft | 116 kts | 3° |
| 2026-05-06 18:11 | 51.68756 | 9.15266 | 6665 ft | 116 kts | 4° |
| 2026-05-06 18:12 | 51.69542 | 9.15433 | 6948 ft | 116 kts | 5° |
| 2026-05-06 18:12 | 51.70341 | 9.15610 | 7229 ft | 116 kts | 5° |
| 2026-05-06 18:12 | 51.71143 | 9.15791 | 7521 ft | 117 kts | 5° |
| 2026-05-06 18:12 | 51.71952 | 9.15975 | 7800 ft | 119 kts | 5° |
| 2026-05-06 18:13 | 51.72853 | 9.16182 | 7823 ft | 141 kts | 5° |
| 2026-05-06 18:13 | 51.73872 | 9.16420 | 7831 ft | 152 kts | 5° |
| 2026-05-06 18:13 | 51.74925 | 9.16663 | 7833 ft | 154 kts | 5° |
| 2026-05-06 18:13 | 51.75996 | 9.16906 | 7833 ft | 156 kts | 5° |
| 2026-05-06 18:14 | 51.77088 | 9.17154 | 7828 ft | 160 kts | 5° |
| 2026-05-06 18:14 | 51.78178 | 9.17407 | 7823 ft | 161 kts | 5° |
| 2026-05-06 18:14 | 51.79280 | 9.17661 | 7826 ft | 160 kts | 5° |
| 2026-05-06 18:14 | 51.80380 | 9.17914 | 7826 ft | 160 kts | 5° |
| 2026-05-06 18:15 | 51.81480 | 9.18169 | 7828 ft | 160 kts | 5° |
| 2026-05-06 18:15 | 51.82580 | 9.18422 | 7824 ft | 160 kts | 5° |
| 2026-05-06 18:15 | 51.83680 | 9.18676 | 7825 ft | 160 kts | 5° |
| 2026-05-06 18:15 | 51.84780 | 9.18930 | 7825 ft | 160 kts | 5° |
| 2026-05-06 18:16 | 51.85879 | 9.19184 | 7828 ft | 159 kts | 5° |
| 2026-05-06 18:16 | 51.86980 | 9.19438 | 7829 ft | 160 kts | 5° |
| 2026-05-06 18:16 | 51.88071 | 9.19690 | 7828 ft | 160 kts | 5° |
| 2026-05-06 18:16 | 51.89178 | 9.19948 | 7829 ft | 161 kts | 6° |
| 2026-05-06 18:17 | 51.90285 | 9.20203 | 7826 ft | 161 kts | 5° |
| 2026-05-06 18:17 | 51.91389 | 9.20458 | 7825 ft | 160 kts | 6° |
| 2026-05-06 18:17 | 51.92489 | 9.20713 | 7826 ft | 159 kts | 6° |
| 2026-05-06 18:17 | 51.93585 | 9.20967 | 7826 ft | 159 kts | 6° |
| 2026-05-06 18:18 | 51.94681 | 9.21221 | 7826 ft | 159 kts | 6° |
| 2026-05-06 18:18 | 51.95775 | 9.21474 | 7830 ft | 158 kts | 6° |
| 2026-05-06 18:18 | 51.96871 | 9.21729 | 7826 ft | 159 kts | 6° |
| 2026-05-06 18:18 | 51.97951 | 9.21980 | 7827 ft | 158 kts | 6° |
| 2026-05-06 18:19 | 51.99041 | 9.22233 | 7829 ft | 159 kts | 6° |
| 2026-05-06 18:19 | 52.00135 | 9.22487 | 7831 ft | 159 kts | 6° |
| 2026-05-06 18:19 | 52.01233 | 9.22743 | 7832 ft | 160 kts | 6° |
| 2026-05-06 18:19 | 52.02334 | 9.23000 | 7831 ft | 160 kts | 6° |
| 2026-05-06 18:20 | 52.03428 | 9.23254 | 7830 ft | 159 kts | 6° |
| 2026-05-06 18:20 | 52.04526 | 9.23509 | 7829 ft | 159 kts | 6° |
| 2026-05-06 18:20 | 52.05621 | 9.23764 | 7831 ft | 159 kts | 6° |
| 2026-05-06 18:20 | 52.06703 | 9.24017 | 7833 ft | 159 kts | 6° |
| 2026-05-06 18:21 | 52.07796 | 9.24271 | 7833 ft | 158 kts | 6° |
| 2026-05-06 18:21 | 52.08881 | 9.24524 | 7833 ft | 157 kts | 6° |
| 2026-05-06 18:21 | 52.09961 | 9.24777 | 7832 ft | 157 kts | 6° |
| 2026-05-06 18:21 | 52.11043 | 9.25030 | 7834 ft | 157 kts | 7° |
| 2026-05-06 18:22 | 52.12122 | 9.25282 | 7830 ft | 156 kts | 6° |
| 2026-05-06 18:22 | 52.13196 | 9.25532 | 7833 ft | 156 kts | 6° |
| 2026-05-06 18:22 | 52.14275 | 9.25785 | 7832 ft | 157 kts | 7° |
| 2026-05-06 18:22 | 52.15339 | 9.26034 | 7833 ft | 157 kts | 7° |
| 2026-05-06 18:23 | 52.16420 | 9.26287 | 7835 ft | 157 kts | 6° |
| 2026-05-06 18:23 | 52.17506 | 9.26542 | 7833 ft | 158 kts | 7° |
| 2026-05-06 18:23 | 52.18599 | 9.26797 | 7838 ft | 159 kts | 7° |
| 2026-05-06 18:23 | 52.19697 | 9.27055 | 7834 ft | 159 kts | 7° |
| 2026-05-06 18:24 | 52.20793 | 9.27316 | 7834 ft | 159 kts | 7° |
| 2026-05-06 18:24 | 52.21888 | 9.27571 | 7832 ft | 159 kts | 7° |
| 2026-05-06 18:24 | 52.22984 | 9.27827 | 7833 ft | 159 kts | 8° |
| 2026-05-06 18:24 | 52.24078 | 9.28084 | 7832 ft | 159 kts | 8° |
| 2026-05-06 18:25 | 52.25156 | 9.28337 | 7834 ft | 159 kts | 8° |
| 2026-05-06 18:25 | 52.26246 | 9.28594 | 7832 ft | 158 kts | 8° |
| 2026-05-06 18:25 | 52.27329 | 9.28848 | 7834 ft | 157 kts | 8° |
| 2026-05-06 18:25 | 52.28409 | 9.29102 | 7830 ft | 156 kts | 8° |
| 2026-05-06 18:26 | 52.29486 | 9.29357 | 7831 ft | 157 kts | 9° |
| 2026-05-06 18:26 | 52.30566 | 9.29612 | 7833 ft | 156 kts | 8° |
| 2026-05-06 18:26 | 52.31643 | 9.29866 | 7831 ft | 157 kts | 9° |
| 2026-05-06 18:26 | 52.32725 | 9.30121 | 7835 ft | 157 kts | 9° |
| 2026-05-06 18:27 | 52.33808 | 9.30376 | 7833 ft | 157 kts | 9° |
| 2026-05-06 18:27 | 52.34877 | 9.30628 | 7830 ft | 157 kts | 9° |
| 2026-05-06 18:27 | 52.35959 | 9.30884 | 7833 ft | 157 kts | 9° |
| 2026-05-06 18:27 | 52.37040 | 9.31140 | 7832 ft | 157 kts | 9° |
| 2026-05-06 18:28 | 52.38116 | 9.31393 | 7833 ft | 156 kts | 9° |
| 2026-05-06 18:28 | 52.39184 | 9.31646 | 7831 ft | 155 kts | 9° |
| 2026-05-06 18:28 | 52.40251 | 9.31899 | 7832 ft | 155 kts | 10° |
| 2026-05-06 18:28 | 52.41317 | 9.32152 | 7834 ft | 155 kts | 9° |
| 2026-05-06 18:29 | 52.42385 | 9.32405 | 7836 ft | 156 kts | 10° |
| 2026-05-06 18:29 | 52.43458 | 9.32660 | 7835 ft | 156 kts | 10° |
| 2026-05-06 18:29 | 52.44530 | 9.32914 | 7834 ft | 156 kts | 10° |
| 2026-05-06 18:29 | 52.45586 | 9.33164 | 7833 ft | 155 kts | 10° |
| 2026-05-06 18:30 | 52.46654 | 9.33417 | 7836 ft | 155 kts | 10° |
| 2026-05-06 18:30 | 52.47719 | 9.33671 | 7861 ft | 154 kts | 10° |
| 2026-05-06 18:30 | 52.48779 | 9.33922 | 7861 ft | 154 kts | 11° |
| 2026-05-06 18:30 | 52.49835 | 9.34175 | 7862 ft | 154 kts | 11° |
| 2026-05-06 18:31 | 52.50896 | 9.34426 | 7859 ft | 154 kts | 10° |
| 2026-05-06 18:31 | 52.51960 | 9.34679 | 7860 ft | 154 kts | 10° |
| 2026-05-06 18:31 | 52.53021 | 9.34932 | 7860 ft | 154 kts | 11° |
| 2026-05-06 18:31 | 52.54080 | 9.35184 | 7863 ft | 154 kts | 11° |
| 2026-05-06 18:32 | 52.55136 | 9.35436 | 7858 ft | 153 kts | 11° |
| 2026-05-06 18:32 | 52.56172 | 9.35683 | 7858 ft | 152 kts | 11° |
| 2026-05-06 18:32 | 52.57221 | 9.35933 | 7859 ft | 152 kts | 11° |
| 2026-05-06 18:32 | 52.58272 | 9.36184 | 7859 ft | 153 kts | 11° |
| 2026-05-06 18:33 | 52.59325 | 9.36436 | 7859 ft | 153 kts | 10° |
| 2026-05-06 18:33 | 52.60379 | 9.36687 | 7854 ft | 153 kts | 11° |
| 2026-05-06 18:33 | 52.61429 | 9.36938 | 7858 ft | 152 kts | 11° |
| 2026-05-06 18:33 | 52.62480 | 9.37116 | 7849 ft | 153 kts | 359° |
| 2026-05-06 18:34 | 52.63513 | 9.36663 | 7851 ft | 155 kts | 342° |
| 2026-05-06 18:34 | 52.64524 | 9.36061 | 7848 ft | 154 kts | 342° |
| 2026-05-06 18:34 | 52.65532 | 9.35457 | 7849 ft | 154 kts | 342° |
| 2026-05-06 18:34 | 52.66525 | 9.34859 | 7849 ft | 154 kts | 341° |
| 2026-05-06 18:35 | 52.67298 | 9.33662 | 7848 ft | 157 kts | 298° |
| 2026-05-06 18:35 | 52.67705 | 9.31988 | 7849 ft | 158 kts | 291° |
| 2026-05-06 18:35 | 52.68096 | 9.30300 | 7848 ft | 158 kts | 294° |
| 2026-05-06 18:35 | 52.68529 | 9.28644 | 7849 ft | 157 kts | 296° |
| 2026-05-06 18:36 | 52.68980 | 9.26998 | 7851 ft | 158 kts | 296° |
| 2026-05-06 18:36 | 52.69435 | 9.25355 | 7851 ft | 158 kts | 297° |
| 2026-05-06 18:36 | 52.69889 | 9.23713 | 7852 ft | 157 kts | 297° |
| 2026-05-06 18:36 | 52.70344 | 9.22070 | 7854 ft | 157 kts | 297° |
| 2026-05-06 18:37 | 52.70797 | 9.20428 | 7851 ft | 158 kts | 297° |
| 2026-05-06 18:37 | 52.71252 | 9.18781 | 7852 ft | 158 kts | 297° |
| 2026-05-06 18:37 | 52.71699 | 9.17165 | 7889 ft | 156 kts | 297° |
| 2026-05-06 18:37 | 52.72144 | 9.15529 | 7730 ft | 155 kts | 298° |
| 2026-05-06 18:38 | 52.72605 | 9.13896 | 7533 ft | 159 kts | 297° |
| 2026-05-06 18:38 | 52.73065 | 9.12225 | 7331 ft | 161 kts | 297° |
| 2026-05-06 18:38 | 52.73531 | 9.10523 | 7073 ft | 165 kts | 297° |
| 2026-05-06 18:38 | 52.74008 | 9.08783 | 6777 ft | 169 kts | 297° |
| 2026-05-06 18:39 | 52.74501 | 9.06986 | 6439 ft | 173 kts | 297° |
| 2026-05-06 18:39 | 52.75002 | 9.05161 | 6087 ft | 175 kts | 297° |
| 2026-05-06 18:39 | 52.75508 | 9.03320 | 5724 ft | 176 kts | 297° |
| 2026-05-06 18:40 | 52.76517 | 8.99639 | 5021 ft | 175 kts | 297° |
| 2026-05-06 18:40 | 52.76994 | 8.97886 | 4990 ft | 160 kts | 297° |
| 2026-05-06 18:40 | 52.77434 | 8.96276 | 4984 ft | 149 kts | 298° |
| 2026-05-06 18:40 | 52.77844 | 8.94775 | 4987 ft | 142 kts | 298° |
| 2026-05-06 18:41 | 52.78245 | 8.93310 | 4983 ft | 138 kts | 298° |
| 2026-05-06 18:41 | 52.78638 | 8.91874 | 4983 ft | 140 kts | 298° |
| 2026-05-06 18:41 | 52.79057 | 8.90338 | 4988 ft | 153 kts | 298° |
| 2026-05-06 18:41 | 52.79507 | 8.88697 | 4994 ft | 160 kts | 298° |
| 2026-05-06 18:42 | 52.79970 | 8.86998 | 4998 ft | 164 kts | 298° |
| 2026-05-06 18:42 | 52.80441 | 8.85266 | 4994 ft | 166 kts | 297° |
| 2026-05-06 18:42 | 52.80918 | 8.83515 | 4999 ft | 168 kts | 297° |
| 2026-05-06 18:42 | 52.81390 | 8.81778 | 4998 ft | 168 kts | 297° |
| 2026-05-06 18:43 | 52.81870 | 8.80011 | 5002 ft | 169 kts | 297° |
| 2026-05-06 18:43 | 52.82349 | 8.78243 | 4997 ft | 168 kts | 297° |
| 2026-05-06 18:43 | 52.82829 | 8.76476 | 4999 ft | 169 kts | 297° |
| 2026-05-06 18:43 | 52.83310 | 8.74704 | 5003 ft | 169 kts | 297° |
| 2026-05-06 18:44 | 52.83790 | 8.72928 | 4995 ft | 169 kts | 297° |
| 2026-05-06 18:44 | 52.84271 | 8.71150 | 4995 ft | 169 kts | 297° |
| 2026-05-06 18:44 | 52.84753 | 8.69370 | 4911 ft | 174 kts | 297° |
| 2026-05-06 18:44 | 52.85265 | 8.67487 | 4633 ft | 183 kts | 297° |
| 2026-05-06 18:45 | 52.85777 | 8.65592 | 4350 ft | 183 kts | 298° |
| 2026-05-06 18:45 | 52.86296 | 8.63663 | 4062 ft | 183 kts | 298° |
| 2026-05-06 18:45 | 52.86814 | 8.61736 | 3781 ft | 183 kts | 298° |
| 2026-05-06 18:45 | 52.87329 | 8.59820 | 3496 ft | 182 kts | 298° |
| 2026-05-06 18:46 | 52.87842 | 8.57913 | 3217 ft | 181 kts | 299° |
| 2026-05-06 18:46 | 52.88349 | 8.56026 | 3006 ft | 176 kts | 299° |
| 2026-05-06 18:46 | 52.88825 | 8.54239 | 3004 ft | 165 kts | 300° |
| 2026-05-06 18:46 | 52.89280 | 8.52541 | 3000 ft | 159 kts | 300° |
| 2026-05-06 18:47 | 52.89726 | 8.50886 | 3002 ft | 156 kts | 301° |
| 2026-05-06 18:47 | 52.90159 | 8.49272 | 2999 ft | 155 kts | 301° |
| 2026-05-06 18:47 | 52.90593 | 8.47656 | 2997 ft | 153 kts | 301° |
| 2026-05-06 18:47 | 52.91024 | 8.46047 | 2995 ft | 153 kts | 301° |
| 2026-05-06 18:48 | 52.91454 | 8.44442 | 2998 ft | 152 kts | 301° |
| 2026-05-06 18:48 | 52.91882 | 8.42837 | 3000 ft | 152 kts | 301° |
| 2026-05-06 18:48 | 52.92311 | 8.41235 | 2999 ft | 152 kts | 301° |
| 2026-05-06 18:48 | 52.92738 | 8.39636 | 3003 ft | 151 kts | 301° |
| 2026-05-06 18:49 | 52.93164 | 8.38039 | 3000 ft | 152 kts | 301° |
| 2026-05-06 18:49 | 52.93729 | 8.36631 | 2996 ft | 142 kts | 331° |
| 2026-05-06 18:49 | 52.94631 | 8.36222 | 3005 ft | 134 kts | 2° |
| 2026-05-06 18:49 | 52.95546 | 8.36159 | 3004 ft | 133 kts | 3° |
| 2026-05-06 18:50 | 52.96474 | 8.36105 | 3002 ft | 134 kts | 3° |
| 2026-05-06 18:50 | 52.97402 | 8.36054 | 3006 ft | 134 kts | 3° |
| 2026-05-06 18:50 | 52.98333 | 8.36017 | 3002 ft | 133 kts | 8° |
| 2026-05-06 18:50 | 52.99095 | 8.36716 | 3003 ft | 128 kts | 54° |
| 2026-05-06 18:51 | 52.99502 | 8.38036 | 3009 ft | 129 kts | 63° |
| 2026-05-06 18:51 | 52.99873 | 8.39389 | 3011 ft | 129 kts | 63° |
| 2026-05-06 18:51 | 53.00245 | 8.40743 | 3008 ft | 129 kts | 63° |
| 2026-05-06 18:51 | 53.00615 | 8.42100 | 3011 ft | 129 kts | 63° |
| 2026-05-06 18:52 | 53.00987 | 8.43457 | 3011 ft | 129 kts | 63° |
| 2026-05-06 18:52 | 53.01355 | 8.44817 | 3007 ft | 129 kts | 63° |
| 2026-05-06 18:52 | 53.01723 | 8.46176 | 3008 ft | 129 kts | 64° |
| 2026-05-06 18:52 | 53.02088 | 8.47521 | 3004 ft | 126 kts | 63° |
| 2026-05-06 18:53 | 53.02443 | 8.48837 | 3000 ft | 124 kts | 64° |
| 2026-05-06 18:53 | 53.02779 | 8.50085 | 3000 ft | 117 kts | 64° |
| 2026-05-06 18:53 | 53.03101 | 8.51285 | 2998 ft | 111 kts | 63° |
| 2026-05-06 18:53 | 53.03414 | 8.52442 | 2997 ft | 109 kts | 63° |
| 2026-05-06 18:54 | 53.03705 | 8.53615 | 2905 ft | 112 kts | 65° |
| 2026-05-06 18:54 | 53.04001 | 8.54833 | 2764 ft | 116 kts | 67° |
| 2026-05-06 18:54 | 53.04120 | 8.56190 | 2603 ft | 121 kts | 79° |
| 2026-05-06 18:54 | 53.04186 | 8.57562 | 2437 ft | 112 kts | 81° |
| 2026-05-06 18:55 | 53.04226 | 8.58704 | 2291 ft | 82 kts | 81° |
| 2026-05-06 18:55 | 53.04257 | 8.59587 | 2222 ft | 78 kts | 79° |
| 2026-05-06 18:55 | 53.04292 | 8.60568 | 2111 ft | 94 kts | 81° |
| 2026-05-06 18:55 | 53.04313 | 8.61714 | 1969 ft | 103 kts | 82° |
| 2026-05-06 18:56 | 53.04338 | 8.62932 | 1829 ft | 105 kts | 83° |
| 2026-05-06 18:56 | 53.04362 | 8.64123 | 1684 ft | 104 kts | 82° |
| 2026-05-06 18:56 | 53.04390 | 8.65317 | 1549 ft | 102 kts | 83° |
| 2026-05-06 18:56 | 53.04414 | 8.66461 | 1405 ft | 97 kts | 82° |
| 2026-05-06 18:57 | 53.04440 | 8.67567 | 1270 ft | 95 kts | 82° |
| 2026-05-06 18:57 | 53.04465 | 8.68664 | 1139 ft | 96 kts | 82° |
| 2026-05-06 18:57 | 53.04491 | 8.69770 | 1001 ft | 96 kts | 83° |
| 2026-05-06 18:57 | 53.04516 | 8.70894 | 857 ft | 99 kts | 83° |
| 2026-05-06 18:58 | 53.04543 | 8.72053 | 712 ft | 100 kts | 84° |
| 2026-05-06 18:58 | 53.04568 | 8.73235 | 567 ft | 104 kts | 85° |
| 2026-05-06 18:58 | 53.04593 | 8.74416 | 424 ft | 100 kts | 85° |
| 2026-05-06 18:58 | 53.04614 | 8.75510 | 292 ft | 88 kts | 84° |
| 2026-05-06 18:59 | 53.04634 | 8.76428 | 157 ft | 75 kts | 81° |
| 2026-05-06 18:59 | 53.04651 | 8.77285 | 53 ft | 73 kts | 84° |
| 2026-05-06 18:59 | 53.04673 | 8.78064 | 21 ft | 59 kts | 83° |
| 2026-05-06 18:59 | 53.04694 | 8.78563 | 18 ft | 27 kts | 76° |
| 2026-05-06 19:00 | 53.04802 | 8.78656 | 14 ft | 15 kts | 5° |
| 2026-05-06 19:00 | 53.04848 | 8.78659 | 15 ft | 3 kts | 301° |
| 2026-05-06 19:00 | 53.04851 | 8.78510 | 14 ft | 20 kts | 276° |
| 2026-05-06 19:00 | 53.04898 | 8.78314 | 17 ft | 18 kts | 322° |
| 2026-05-06 19:01 | 53.05004 | 8.78232 | 16 ft | 17 kts | 318° |
| 2026-05-06 19:01 | 53.05093 | 8.78104 | 15 ft | 17 kts | 320° |
| 2026-05-06 19:01 | 53.05182 | 8.77970 | 15 ft | 17 kts | 332° |
| 2026-05-06 19:01 | 53.05257 | 8.77863 | 16 ft | 15 kts | 315° |
| 2026-05-06 19:02 | 53.05262 | 8.77762 | 16 ft | 4 kts | 271° |
| 2026-05-06 19:02 | 53.05266 | 8.77759 | 16 ft | 0 kts | 46° |